Time;durP1;ratioP1;P1;durP2;ratioP2;P2;SDS_P1;SDS_P2;PMS_P1;PMS_P2;Temp;Humidity;BMP_temperature;BMP_pressure;BME280_temperature;BME280_humidity;BME280_pressure;Samples;Min_cycle;Max_cycle;Signal;HPM_P1;HPM_P2
2024/03/06 00:01:31;;;;;;;162.43;111.35;;;19.00;75.90;;;;;;5044556;28;20020;-64
2024/03/06 00:03:56;;;;;;;162.13;109.78;;;19.00;76.00;;;;;;5042943;28;20032;-63
2024/03/06 00:06:22;;;;;;;159.05;107.85;;;19.00;76.10;;;;;;5041826;28;20026;-63
2024/03/06 00:08:48;;;;;;;158.55;108.40;;;19.00;76.10;;;;;;5042360;28;20087;-63
2024/03/06 00:11:13;;;;;;;164.15;108.13;;;19.00;76.10;;;;;;5043956;28;20477;-64
2024/03/06 00:13:39;;;;;;;157.82;106.15;;;19.00;76.30;;;;;;5045080;28;20048;-64
2024/03/06 00:16:04;;;;;;;159.55;105.15;;;19.10;76.00;;;;;;5044667;28;20028;-63
2024/03/06 00:18:30;;;;;;;155.90;105.28;;;19.00;76.10;;;;;;5044789;28;20528;-63
2024/03/06 00:20:56;;;;;;;156.73;104.57;;;19.10;76.10;;;;;;5042427;28;20033;-63
2024/03/06 00:23:21;;;;;;;155.20;102.97;;;19.10;76.30;;;;;;5041201;28;20024;-64
2024/03/06 00:25:47;;;;;;;150.40;102.28;;;19.10;76.20;;;;;;5049223;28;20028;-66
2024/03/06 00:28:12;;;;;;;150.27;101.65;;;19.10;76.30;;;;;;5037317;28;20017;-65
2024/03/06 00:30:38;;;;;;;157.40;104.15;;;19.10;75.90;;;;;;5044140;28;20072;-64
2024/03/06 00:33:04;;;;;;;151.30;98.68;;;19.10;76.20;;;;;;5044425;28;20456;-64
2024/03/06 00:35:32;;;;;;;149.75;99.20;;;19.10;76.40;;;;;;5044372;28;20032;-65
2024/03/06 00:38:02;;;;;;;150.35;97.82;;;19.10;76.30;;;;;;5043075;28;20029;-64
2024/03/06 00:40:30;;;;;;;144.75;97.90;;;19.20;76.20;;;;;;5043779;28;20017;-65
2024/03/06 00:42:56;;;;;;;144.68;98.18;;;19.10;76.30;;;;;;5041956;28;20666;-64
2024/03/06 00:45:22;;;;;;;147.45;99.57;;;19.10;76.30;;;;;;5040731;28;20025;-64
2024/03/06 00:47:48;;;;;;;144.30;95.70;;;19.10;76.40;;;;;;5041708;28;20047;-64
2024/03/06 00:50:16;;;;;;;136.32;93.90;;;19.10;76.40;;;;;;5041678;28;20485;-65
2024/03/06 00:52:42;;;;;;;140.48;95.65;;;19.20;76.50;;;;;;5040196;28;20401;-65
2024/03/06 00:55:09;;;;;;;140.57;95.68;;;19.10;76.50;;;;;;5040414;28;20535;-65
2024/03/06 00:57:34;;;;;;;136.23;93.93;;;19.20;76.60;;;;;;5047798;28;20492;-65
2024/03/06 01:00:00;;;;;;;138.93;94.88;;;19.10;76.50;;;;;;5041159;28;20059;-65
2024/03/06 01:02:26;;;;;;;134.77;92.10;;;19.20;76.60;;;;;;5039955;28;20017;-65
2024/03/06 01:04:51;;;;;;;134.90;93.07;;;19.20;76.70;;;;;;5041392;28;20030;-64
2024/03/06 01:07:17;;;;;;;139.57;94.53;;;19.20;76.60;;;;;;5043796;28;20048;-64
2024/03/06 01:09:42;;;;;;;135.13;92.30;;;19.20;76.70;;;;;;5043264;28;20044;-64
2024/03/06 01:12:08;;;;;;;132.23;90.07;;;19.20;76.70;;;;;;5039927;28;20670;-64
2024/03/06 01:14:33;;;;;;;132.50;89.57;;;19.20;76.80;;;;;;5040186;28;20068;-64
2024/03/06 01:16:59;;;;;;;134.35;90.28;;;19.20;76.90;;;;;;5042484;28;20496;-64
2024/03/06 01:19:25;;;;;;;129.70;87.18;;;19.20;76.80;;;;;;5043465;28;20032;-64
2024/03/06 01:21:50;;;;;;;131.55;90.03;;;19.20;76.80;;;;;;5049804;28;20176;-65
2024/03/06 01:24:16;;;;;;;126.75;86.13;;;19.30;76.80;;;;;;5039907;28;20029;-63
2024/03/06 01:26:41;;;;;;;125.90;85.30;;;19.20;76.80;;;;;;5040068;28;20029;-65
2024/03/06 01:29:07;;;;;;;125.93;88.60;;;19.20;76.70;;;;;;5043391;28;20369;-66
2024/03/06 01:31:32;;;;;;;124.72;85.53;;;19.20;76.80;;;;;;5042556;28;20096;-65
2024/03/06 01:33:58;;;;;;;127.35;85.70;;;19.30;76.80;;;;;;5035030;28;20449;-65
2024/03/06 01:36:24;;;;;;;123.07;83.53;;;19.30;76.70;;;;;;5038936;28;20082;-65
2024/03/06 01:38:49;;;;;;;117.68;81.30;;;19.30;76.60;;;;;;5040615;28;20504;-64
2024/03/06 01:41:15;;;;;;;122.85;83.85;;;19.30;76.70;;;;;;5042534;28;20025;-64
2024/03/06 01:43:41;;;;;;;118.85;81.55;;;19.30;76.70;;;;;;5043225;28;20900;-65
2024/03/06 01:46:07;;;;;;;119.63;80.22;;;19.30;76.70;;;;;;5039685;28;20017;-64
2024/03/06 01:48:34;;;;;;;119.35;80.20;;;19.30;76.90;;;;;;5039619;28;20079;-64
2024/03/06 01:51:02;;;;;;;121.30;80.85;;;19.30;76.80;;;;;;5044531;28;20488;-64
2024/03/06 01:53:30;;;;;;;116.80;78.72;;;19.30;76.90;;;;;;5039362;28;20041;-65
2024/03/06 01:55:56;;;;;;;116.55;80.15;;;19.30;76.90;;;;;;5041214;28;20034;-64
2024/03/06 01:58:23;;;;;;;114.60;77.80;;;19.30;76.90;;;;;;5042777;28;20035;-64
2024/03/06 02:00:50;;;;;;;112.72;77.05;;;19.30;76.80;;;;;;5041674;28;20059;-64
2024/03/06 02:03:16;;;;;;;114.88;76.00;;;19.30;76.90;;;;;;5041600;28;20048;-65
2024/03/06 02:05:43;;;;;;;115.53;77.55;;;19.30;77.00;;;;;;5040276;28;20033;-64
2024/03/06 02:08:08;;;;;;;110.57;74.93;;;19.30;77.30;;;;;;5040846;28;20022;-64
2024/03/06 02:10:34;;;;;;;108.00;74.45;;;19.30;77.40;;;;;;5043877;28;20028;-67
2024/03/06 02:13:00;;;;;;;111.05;73.43;;;19.30;77.50;;;;;;5044648;28;20049;-65
2024/03/06 02:15:26;;;;;;;108.78;73.60;;;19.40;77.60;;;;;;5045481;28;20519;-65
2024/03/06 02:17:53;;;;;;;104.55;70.80;;;19.40;77.40;;;;;;5040813;28;20021;-65
2024/03/06 02:20:25;;;;;;;104.53;71.80;;;19.40;77.40;;;;;;5038649;28;20029;-66
2024/03/06 02:22:51;;;;;;;104.68;72.97;;;19.40;77.30;;;;;;5039622;28;20026;-66
2024/03/06 02:25:17;;;;;;;105.45;72.28;;;19.40;77.30;;;;;;5042404;28;20023;-66
2024/03/06 02:27:44;;;;;;;105.25;70.93;;;19.40;77.20;;;;;;5041997;28;20031;-66
2024/03/06 02:30:10;;;;;;;103.15;69.72;;;19.40;77.30;;;;;;5038676;28;20029;-65
2024/03/06 02:32:36;;;;;;;104.20;69.63;;;19.40;77.30;;;;;;5038304;28;20026;-65
2024/03/06 02:35:08;;;;;;;100.32;69.45;;;19.40;77.30;;;;;;5041187;28;20353;-66
2024/03/06 02:37:34;;;;;;;102.47;69.22;;;19.40;77.30;;;;;;5042118;28;20763;-65
2024/03/06 02:40:00;;;;;;;95.38;66.38;;;19.40;77.20;;;;;;5041188;28;20436;-66
2024/03/06 02:42:27;;;;;;;98.93;68.03;;;19.40;77.20;;;;;;5044590;28;20017;-66
2024/03/06 02:44:53;;;;;;;99.13;66.60;;;19.40;77.20;;;;;;5038955;28;20033;-66
2024/03/06 02:47:19;;;;;;;101.20;66.97;;;19.40;77.10;;;;;;5038967;28;20025;-66
2024/03/06 02:49:45;;;;;;;98.07;65.32;;;19.40;77.10;;;;;;5040888;28;20021;-66
2024/03/06 02:52:10;;;;;;;93.10;63.00;;;19.40;77.10;;;;;;5016207;28;20507;-66
2024/03/06 02:54:36;;;;;;;96.35;64.53;;;19.40;77.10;;;;;;5042966;28;20033;-66
2024/03/06 02:57:01;;;;;;;105.18;64.28;;;19.50;77.00;;;;;;5041429;28;20021;-66
2024/03/06 02:59:27;;;;;;;97.53;64.90;;;19.40;77.10;;;;;;5041976;28;20013;-66
2024/03/06 03:01:53;;;;;;;91.80;62.67;;;19.50;77.10;;;;;;5039946;28;20547;-66
2024/03/06 03:04:19;;;;;;;101.47;62.80;;;19.40;77.00;;;;;;5038677;28;20096;-66
2024/03/06 03:06:44;;;;;;;93.07;61.33;;;19.50;76.90;;;;;;5038675;28;20029;-66
2024/03/06 03:09:11;;;;;;;95.80;60.97;;;19.40;76.90;;;;;;5042142;28;20028;-68
2024/03/06 03:11:38;;;;;;;87.05;57.47;;;19.50;76.90;;;;;;5041384;28;20025;-67
2024/03/06 03:14:03;;;;;;;89.63;59.67;;;19.50;76.80;;;;;;5039067;28;20056;-64
2024/03/06 03:16:29;;;;;;;83.50;57.28;;;19.50;76.80;;;;;;5038589;28;20485;-65
2024/03/06 03:18:55;;;;;;;89.80;59.42;;;19.50;76.80;;;;;;5040074;28;20037;-66
2024/03/06 03:21:22;;;;;;;89.38;58.42;;;19.50;76.70;;;;;;5041121;28;20025;-64
2024/03/06 03:23:48;;;;;;;86.50;58.65;;;19.50;76.70;;;;;;5041392;28;20036;-64
2024/03/06 03:26:14;;;;;;;80.72;56.08;;;19.50;76.70;;;;;;5038542;28;20565;-65
2024/03/06 03:28:40;;;;;;;90.07;58.70;;;19.50;76.80;;;;;;5042376;28;20052;-64
2024/03/06 03:31:08;;;;;;;86.80;56.92;;;19.50;76.80;;;;;;5048561;28;20010;-64
2024/03/06 03:33:38;;;;;;;80.03;53.35;;;19.50;76.80;;;;;;5038808;28;20527;-64
2024/03/06 03:36:05;;;;;;;84.03;55.80;;;19.50;76.70;;;;;;5042708;28;20487;-64
2024/03/06 03:38:31;;;;;;;83.07;54.92;;;19.50;76.90;;;;;;5043137;28;20125;-64
2024/03/06 03:40:56;;;;;;;81.53;53.17;;;19.50;76.80;;;;;;5042986;28;20512;-62
2024/03/06 03:43:23;;;;;;;81.05;53.95;;;19.50;76.80;;;;;;5041490;28;20018;-63
2024/03/06 03:45:49;;;;;;;78.57;52.53;;;19.50;76.80;;;;;;5042760;28;20108;-63
2024/03/06 03:48:14;;;;;;;81.10;52.60;;;19.50;76.80;;;;;;5045369;28;20112;-62
2024/03/06 03:50:40;;;;;;;74.30;50.33;;;19.50;76.70;;;;;;5044641;28;20029;-62
2024/03/06 03:53:06;;;;;;;78.15;53.35;;;19.50;76.80;;;;;;5042353;28;20017;-63
2024/03/06 03:55:31;;;;;;;73.13;50.75;;;19.50;76.70;;;;;;5045137;28;20074;-63
2024/03/06 03:57:57;;;;;;;74.05;49.05;;;19.50;76.70;;;;;;5043139;28;20025;-62
2024/03/06 04:00:22;;;;;;;74.07;49.80;;;19.50;76.70;;;;;;5041254;28;20101;-61
2024/03/06 04:02:48;;;;;;;77.88;51.70;;;19.50;76.60;;;;;;5044718;28;20025;-62
2024/03/06 04:05:14;;;;;;;69.38;49.17;;;19.50;76.60;;;;;;5040563;28;20037;-64
2024/03/06 04:07:40;;;;;;;76.28;48.53;;;19.50;76.70;;;;;;5044208;28;20033;-65
2024/03/06 04:10:07;;;;;;;71.13;48.80;;;19.50;76.70;;;;;;5033555;28;20100;-65
2024/03/06 04:12:32;;;;;;;71.05;47.78;;;19.50;76.80;;;;;;5039639;28;20068;-65
2024/03/06 04:14:58;;;;;;;70.30;48.22;;;19.50;76.70;;;;;;5050456;28;20566;-66
2024/03/06 04:17:25;;;;;;;69.32;46.95;;;19.50;76.70;;;;;;5039663;28;20108;-62
2024/03/06 04:19:50;;;;;;;73.47;48.50;;;19.50;76.70;;;;;;5041213;28;20110;-63
2024/03/06 04:22:19;;;;;;;69.40;46.53;;;19.50;76.70;;;;;;5040820;28;20045;-64
2024/03/06 04:24:44;;;;;;;75.72;47.75;;;19.50;76.70;;;;;;5044277;28;20503;-65
2024/03/06 04:27:10;;;;;;;68.85;45.70;;;19.50;76.60;;;;;;5041487;28;20025;-66
2024/03/06 04:29:36;;;;;;;64.80;45.38;;;19.50;76.60;;;;;;5048306;28;20025;-65
2024/03/06 04:32:02;;;;;;;71.20;46.08;;;19.50;76.60;;;;;;5041156;28;20119;-66
2024/03/06 04:34:27;;;;;;;63.10;43.55;;;19.50;76.70;;;;;;5047096;28;20029;-65
2024/03/06 04:36:53;;;;;;;68.20;45.88;;;19.60;76.60;;;;;;5044437;28;20366;-64
2024/03/06 04:39:18;;;;;;;68.28;46.03;;;19.50;76.50;;;;;;5039072;28;20017;-64
2024/03/06 04:41:44;;;;;;;63.65;42.88;;;19.50;76.50;;;;;;5043489;28;20053;-63
2024/03/06 04:44:09;;;;;;;67.13;43.53;;;19.60;76.50;;;;;;5039808;28;20021;-64
2024/03/06 04:46:35;;;;;;;65.55;43.10;;;19.60;76.50;;;;;;5040937;28;20013;-64
2024/03/06 04:49:01;;;;;;;61.45;41.65;;;19.50;76.50;;;;;;5048764;28;20573;-66
2024/03/06 04:51:26;;;;;;;64.65;42.38;;;19.50;76.50;;;;;;5040843;28;20028;-65
2024/03/06 04:53:52;;;;;;;60.30;41.63;;;19.50;76.70;;;;;;5048637;28;20088;-66
2024/03/06 04:56:18;;;;;;;64.65;42.45;;;19.60;76.60;;;;;;5040941;28;20160;-65
2024/03/06 04:58:45;;;;;;;62.78;40.35;;;19.50;76.50;;;;;;5040724;28;20025;-65
2024/03/06 05:01:12;;;;;;;57.97;39.88;;;19.50;76.50;;;;;;5043312;28;20637;-65
2024/03/06 05:03:38;;;;;;;61.80;42.08;;;19.50;76.50;;;;;;5036559;28;20029;-65
2024/03/06 05:06:05;;;;;;;62.03;41.47;;;19.50;76.50;;;;;;5043296;28;20086;-65
2024/03/06 05:08:31;;;;;;;58.30;39.95;;;19.60;76.50;;;;;;5043769;28;20029;-65
2024/03/06 05:10:59;;;;;;;56.80;38.05;;;19.50;76.50;;;;;;5020439;28;20026;-64
2024/03/06 05:13:24;;;;;;;56.42;38.33;;;19.60;76.50;;;;;;5033151;28;20025;-65
2024/03/06 05:15:50;;;;;;;56.00;37.85;;;19.50;76.50;;;;;;5031834;28;20032;-65
2024/03/06 05:18:16;;;;;;;56.85;38.63;;;19.50;76.60;;;;;;5040503;28;20075;-64
2024/03/06 05:20:41;;;;;;;56.58;38.80;;;19.50;76.50;;;;;;5039285;28;20512;-64
2024/03/06 05:23:07;;;;;;;60.28;36.40;;;19.50;76.50;;;;;;5043265;28;20032;-65
2024/03/06 05:25:33;;;;;;;50.65;35.75;;;19.60;76.40;;;;;;5049309;28;20524;-64
2024/03/06 05:27:58;;;;;;;55.03;37.22;;;19.60;76.40;;;;;;5041429;28;20029;-64
2024/03/06 05:30:24;;;;;;;58.47;37.80;;;19.60;76.30;;;;;;5036689;28;20025;-64
2024/03/06 05:32:50;;;;;;;57.42;38.40;;;19.60;76.40;;;;;;5041930;28;20100;-64
2024/03/06 05:35:15;;;;;;;58.85;37.25;;;19.60;76.40;;;;;;5039877;28;20026;-65
2024/03/06 05:37:42;;;;;;;56.25;37.15;;;19.60;76.40;;;;;;5040988;28;20028;-63
2024/03/06 05:40:09;;;;;;;51.20;34.13;;;19.60;76.40;;;;;;5039631;28;20083;-63
2024/03/06 05:42:34;;;;;;;51.63;34.75;;;19.60;76.70;;;;;;5039189;28;20026;-62
2024/03/06 05:45:10;;;;;;;54.42;35.60;;;19.60;76.70;;;;;;5041677;28;20445;-63
2024/03/06 05:47:36;;;;;;;59.10;35.30;;;19.60;76.60;;;;;;5043237;28;20020;-63
2024/03/06 05:50:04;;;;;;;48.55;33.35;;;19.60;77.00;;;;;;5040207;28;20054;-64
2024/03/06 05:52:31;;;;;;;50.78;33.80;;;19.60;77.10;;;;;;5038290;28;20408;-63
2024/03/06 05:54:56;;;;;;;48.97;34.30;;;19.60;77.10;;;;;;5039335;28;20476;-63
2024/03/06 05:57:22;;;;;;;50.55;33.63;;;19.60;77.00;;;;;;5039492;28;20162;-63
2024/03/06 05:59:48;;;;;;;52.78;33.78;;;19.60;77.10;;;;;;5039393;28;20426;-62
2024/03/06 06:02:16;;;;;;;47.97;33.28;;;19.60;77.00;;;;;;5042549;28;20029;-63
2024/03/06 06:04:42;;;;;;;48.85;32.95;;;19.60;77.10;;;;;;5042681;28;20504;-63
2024/03/06 06:07:07;;;;;;;49.10;31.90;;;19.60;77.00;;;;;;5039279;28;20030;-64
2024/03/06 06:09:33;;;;;;;46.55;31.40;;;19.60;76.80;;;;;;5039154;28;20021;-63
2024/03/06 06:11:59;;;;;;;46.35;32.63;;;19.60;77.10;;;;;;5039344;28;20021;-64
2024/03/06 06:14:27;;;;;;;47.67;30.33;;;19.60;77.20;;;;;;5039148;28;20036;-64
2024/03/06 06:16:52;;;;;;;53.78;32.75;;;19.60;77.10;;;;;;5040263;28;20040;-65
2024/03/06 06:19:18;;;;;;;48.95;30.85;;;19.60;77.00;;;;;;5024474;28;20694;-64
2024/03/06 06:21:44;;;;;;;73.25;32.00;;;19.60;76.90;;;;;;5065952;23;20127;-64
2024/03/06 06:24:09;;;;;;;51.20;31.75;;;19.60;77.10;;;;;;5049725;28;20043;-66
2024/03/06 06:26:35;;;;;;;49.08;28.77;;;19.60;77.00;;;;;;5041970;28;20025;-64
2024/03/06 06:29:01;;;;;;;50.88;30.23;;;19.60;77.00;;;;;;5041532;28;20032;-64
2024/03/06 06:31:26;;;;;;;46.63;29.20;;;19.60;77.00;;;;;;5049118;28;20047;-64
2024/03/06 06:33:53;;;;;;;41.63;27.98;;;19.60;76.90;;;;;;5049821;28;20349;-64
2024/03/06 06:36:19;;;;;;;46.95;28.65;;;19.70;76.80;;;;;;5049821;28;20027;-63
2024/03/06 06:38:45;;;;;;;52.33;30.02;;;19.70;77.10;;;;;;5049567;28;20048;-63
2024/03/06 06:41:11;;;;;;;47.65;27.83;;;19.70;77.20;;;;;;5049020;28;20104;-64
2024/03/06 06:43:37;;;;;;;45.75;28.17;;;19.60;77.20;;;;;;5049867;28;20108;-64
2024/03/06 06:46:04;;;;;;;47.08;28.60;;;19.70;77.00;;;;;;5049890;28;20044;-63
2024/03/06 06:48:30;;;;;;;48.97;27.80;;;19.70;77.00;;;;;;5049871;28;20024;-64
2024/03/06 06:50:56;;;;;;;47.20;27.10;;;19.70;76.90;;;;;;5048906;28;20089;-64
2024/03/06 06:53:22;;;;;;;41.47;26.88;;;19.70;76.90;;;;;;5049576;28;20025;-65
2024/03/06 06:55:48;;;;;;;41.15;25.95;;;19.70;76.80;;;;;;5049446;28;20036;-64
2024/03/06 06:58:13;;;;;;;40.55;25.95;;;19.70;76.80;;;;;;5049640;28;20025;-64
2024/03/06 07:00:39;;;;;;;38.90;25.27;;;19.70;77.00;;;;;;5049055;28;20036;-62
2024/03/06 07:03:04;;;;;;;39.97;25.00;;;19.70;77.10;;;;;;5050756;28;20024;-65
2024/03/06 07:05:30;;;;;;;43.65;26.45;;;19.70;77.00;;;;;;5051961;28;20025;-64
2024/03/06 07:07:56;;;;;;;44.22;24.45;;;19.70;76.90;;;;;;5051818;28;20035;-64
2024/03/06 07:10:22;;;;;;;38.88;25.90;;;19.70;76.80;;;;;;5052431;28;20021;-64
2024/03/06 07:12:47;;;;;;;41.05;24.63;;;19.70;76.80;;;;;;5052518;28;20029;-64
2024/03/06 07:15:13;;;;;;;40.40;24.73;;;19.70;76.70;;;;;;5050675;28;20066;-64
2024/03/06 07:17:39;;;;;;;39.38;24.38;;;19.70;76.60;;;;;;5053562;28;20029;-64
2024/03/06 07:20:06;;;;;;;37.03;24.33;;;19.70;76.50;;;;;;5052708;28;20105;-66
2024/03/06 07:22:33;;;;;;;34.58;25.98;;;18.70;55.40;;;;;;5052753;28;20020;-66
2024/03/06 07:25:00;;;;;;;33.75;24.95;;;15.70;54.40;;;;;;5053949;28;20029;-66
2024/03/06 07:27:25;;;;;;;35.25;27.40;;;14.20;58.00;;;;;;5053490;28;20017;-64
2024/03/06 07:29:51;;;;;;;49.53;28.00;;;13.00;58.40;;;;;;5053070;28;20029;-65
2024/03/06 07:32:16;;;;;;;39.55;28.23;;;13.10;65.50;;;;;;5052833;28;20563;-69
2024/03/06 07:34:42;;;;;;;42.65;26.92;;;12.60;61.40;;;;;;5053088;28;20032;-67
2024/03/06 07:37:07;;;;;;;39.00;27.10;;;12.20;62.40;;;;;;5053225;28;20053;-64
2024/03/06 07:39:34;;;;;;;40.35;26.00;;;11.80;62.30;;;;;;5053225;28;20099;-66
2024/03/06 07:42:00;;;;;;;37.88;25.70;;;12.00;64.20;;;;;;5052458;28;20028;-65
2024/03/06 07:44:26;;;;;;;36.10;24.83;;;12.00;64.10;;;;;;5053176;28;20029;-66
2024/03/06 07:46:53;;;;;;;29.63;22.55;;;12.90;66.60;;;;;;5052924;28;20483;-66
2024/03/06 07:49:19;;;;;;;27.90;21.33;;;13.60;70.50;;;;;;5053197;28;20033;-67
2024/03/06 07:51:44;;;;;;;31.80;21.90;;;14.30;72.00;;;;;;5052094;28;20384;-67
2024/03/06 07:54:10;;;;;;;31.85;21.05;;;14.90;73.30;;;;;;5053097;28;20051;-66
2024/03/06 07:56:36;;;;;;;28.75;18.92;;;15.30;73.90;;;;;;5053003;28;20029;-66
2024/03/06 07:59:01;;;;;;;27.45;19.02;;;15.70;73.90;;;;;;5035157;28;20027;-66
2024/03/06 08:01:31;;;;;;;26.08;17.92;;;16.00;73.60;;;;;;5050422;28;20036;-66
2024/03/06 08:03:57;;;;;;;26.75;16.83;;;16.30;73.40;;;;;;5052954;28;20023;-66
2024/03/06 08:06:23;;;;;;;29.88;17.17;;;16.50;73.00;;;;;;5052701;28;20047;-66
2024/03/06 08:08:48;;;;;;;29.23;16.25;;;16.80;72.80;;;;;;5052920;28;20056;-66
2024/03/06 08:11:14;;;;;;;21.75;14.55;;;17.00;72.60;;;;;;5032164;28;20105;-67
2024/03/06 08:13:41;;;;;;;23.50;15.73;;;17.10;72.40;;;;;;5032584;28;20025;-67
2024/03/06 08:16:07;;;;;;;23.80;15.35;;;17.30;72.10;;;;;;5032488;28;20112;-66
2024/03/06 08:18:34;;;;;;;22.35;14.40;;;17.40;72.00;;;;;;5032364;28;20091;-67
2024/03/06 08:21:00;;;;;;;24.48;14.50;;;17.50;71.70;;;;;;5031669;28;20053;-65
2024/03/06 08:23:26;;;;;;;19.70;14.40;;;17.60;71.50;;;;;;5032259;28;20109;-66
2024/03/06 08:25:55;;;;;;;17.27;13.45;;;17.70;71.30;;;;;;5032258;28;20048;-66
2024/03/06 08:28:21;;;;;;;17.33;13.48;;;17.80;71.20;;;;;;5032332;28;20100;-66
2024/03/06 08:30:46;;;;;;;19.52;13.45;;;17.90;71.10;;;;;;5031618;28;20132;-66
2024/03/06 08:33:12;;;;;;;18.10;11.93;;;18.00;71.00;;;;;;5032244;28;20025;-66
2024/03/06 08:35:39;;;;;;;14.43;11.75;;;18.00;71.00;;;;;;5032059;28;20044;-66
2024/03/06 08:38:06;;;;;;;17.10;12.75;;;18.00;70.90;;;;;;5032074;28;20029;-65
2024/03/06 08:40:32;;;;;;;17.73;11.40;;;18.10;70.80;;;;;;5032105;28;20026;-66
2024/03/06 08:42:58;;;;;;;17.15;12.00;;;18.20;70.80;;;;;;5031666;28;20078;-66
2024/03/06 08:45:24;;;;;;;23.52;11.80;;;18.20;70.70;;;;;;5032161;28;20376;-67
2024/03/06 08:47:49;;;;;;;16.95;11.63;;;18.30;70.70;;;;;;5031854;28;20032;-67
2024/03/06 08:50:16;;;;;;;18.23;11.55;;;18.40;70.60;;;;;;5031660;28;20040;-67
2024/03/06 08:52:42;;;;;;;15.25;10.90;;;18.40;70.60;;;;;;5031236;28;20053;-66
2024/03/06 08:55:08;;;;;;;16.00;11.55;;;18.40;70.60;;;;;;5031730;28;20374;-67
2024/03/06 08:57:34;;;;;;;17.52;10.77;;;18.50;70.50;;;;;;5031712;28;20013;-66
2024/03/06 09:00:00;;;;;;;16.90;10.82;;;18.50;70.40;;;;;;5031485;28;20065;-67
2024/03/06 09:02:26;;;;;;;12.73;10.02;;;18.50;70.40;;;;;;5031049;28;20108;-67
2024/03/06 09:04:53;;;;;;;12.30;10.48;;;18.60;70.30;;;;;;5031471;28;20697;-67
2024/03/06 09:07:19;;;;;;;14.90;11.05;;;18.60;70.30;;;;;;5031287;28;20061;-67
2024/03/06 09:09:46;;;;;;;14.15;10.50;;;18.70;70.30;;;;;;5031467;28;20087;-66
2024/03/06 09:12:11;;;;;;;13.38;10.13;;;18.70;70.20;;;;;;5030474;28;20573;-67
2024/03/06 09:14:38;;;;;;;15.35;11.20;;;18.70;70.10;;;;;;5031269;28;20117;-67
2024/03/06 09:17:04;;;;;;;13.57;9.63;;;18.80;70.10;;;;;;5031426;28;20021;-67
2024/03/06 09:19:30;;;;;;;13.80;9.75;;;18.80;70.10;;;;;;5031178;28;20029;-67
2024/03/06 09:21:56;;;;;;;14.43;10.20;;;18.80;70.10;;;;;;5030236;28;20040;-67
2024/03/06 09:24:23;;;;;;;12.90;10.00;;;18.80;70.10;;;;;;5013806;28;20177;-66
2024/03/06 09:26:49;;;;;;;12.30;9.82;;;18.90;70.00;;;;;;5031247;28;20032;-67
2024/03/06 09:29:15;;;;;;;13.73;10.73;;;18.90;70.00;;;;;;5031063;28;20480;-67
2024/03/06 09:31:41;;;;;;;16.17;9.90;;;19.00;70.10;;;;;;5030429;28;20034;-67
2024/03/06 09:34:07;;;;;;;14.15;9.52;;;19.00;70.00;;;;;;5031396;28;20033;-67
2024/03/06 09:36:33;;;;;;;11.00;9.40;;;19.00;70.00;;;;;;5031039;28;20029;-67
2024/03/06 09:38:59;;;;;;;13.38;9.50;;;19.00;70.00;;;;;;5031216;28;20017;-67
2024/03/06 09:41:25;;;;;;;14.20;8.70;;;19.00;70.00;;;;;;5030485;28;20392;-66
2024/03/06 09:43:50;;;;;;;10.30;8.65;;;19.00;70.00;;;;;;5031095;28;20018;-66
2024/03/06 09:46:17;;;;;;;10.15;9.07;;;19.00;70.00;;;;;;5031075;28;20025;-67
2024/03/06 09:48:48;;;;;;;10.68;9.27;;;19.00;70.00;;;;;;5030955;28;20037;-67
2024/03/06 09:51:14;;;;;;;10.82;9.05;;;19.10;70.00;;;;;;5030075;28;20026;-66
2024/03/06 09:53:41;;;;;;;11.98;8.82;;;19.10;70.10;;;;;;5030780;28;20021;-67
2024/03/06 09:56:08;;;;;;;13.15;9.38;;;19.10;70.00;;;;;;5030875;28;20128;-67
2024/03/06 09:58:34;;;;;;;11.52;9.35;;;19.10;70.00;;;;;;5030794;28;20501;-67
2024/03/06 10:01:03;;;;;;;12.13;8.48;;;19.10;70.00;;;;;;5029888;28;20097;-67
2024/03/06 10:03:29;;;;;;;11.55;8.35;;;19.20;70.00;;;;;;5030631;28;20052;-67
2024/03/06 10:05:55;;;;;;;9.95;8.68;;;19.10;70.00;;;;;;5030754;28;20049;-66
2024/03/06 10:08:21;;;;;;;11.32;8.50;;;19.10;70.00;;;;;;5030807;28;20417;-67
2024/03/06 10:10:50;;;;;;;9.90;8.30;;;19.10;70.00;;;;;;5030069;28;20062;-67
2024/03/06 10:13:17;;;;;;;11.35;9.15;;;19.20;70.10;;;;;;5030623;28;20029;-67
2024/03/06 10:16:03;;;;;;;11.13;8.85;;;19.20;70.10;;;;;;5030506;28;20053;-67
2024/03/06 10:18:30;;;;;;;12.43;8.93;;;19.20;70.10;;;;;;5029931;28;20040;-67
2024/03/06 10:20:57;;;;;;;11.63;8.48;;;19.20;70.10;;;;;;5029456;28;20056;-66
2024/03/06 10:23:23;;;;;;;9.32;8.40;;;19.20;70.10;;;;;;5030515;28;20053;-67
2024/03/06 10:25:52;;;;;;;10.25;8.20;;;19.20;70.10;;;;;;5030338;28;20100;-67
2024/03/06 10:28:23;;;;;;;10.52;8.45;;;19.20;70.10;;;;;;5030077;28;20068;-66
2024/03/06 10:30:49;;;;;;;10.38;8.63;;;19.20;70.10;;;;;;5029868;28;20059;-66
2024/03/06 10:33:19;;;;;;;11.43;8.35;;;19.20;70.10;;;;;;5030386;28;20037;-66
2024/03/06 10:35:50;;;;;;;12.93;9.02;;;19.20;70.10;;;;;;5030195;28;20026;-67
2024/03/06 10:38:16;;;;;;;9.52;8.45;;;19.20;70.10;;;;;;5029705;28;20018;-67
2024/03/06 10:40:43;;;;;;;10.88;8.20;;;19.30;70.10;;;;;;5029519;28;20017;-67
2024/03/06 10:43:10;;;;;;;10.98;8.18;;;19.30;70.10;;;;;;5029933;28;20594;-67
2024/03/06 10:45:57;;;;;;;10.98;8.90;;;19.20;70.10;;;;;;5030083;28;20520;-65
2024/03/06 10:48:25;;;;;;;8.77;7.88;;;19.20;70.10;;;;;;5030242;28;20578;-67
2024/03/06 10:50:52;;;;;;;10.00;7.95;;;19.20;70.20;;;;;;5029390;28;20036;-66
2024/03/06 10:53:18;;;;;;;9.50;7.88;;;19.20;70.10;;;;;;5030281;28;20040;-67
2024/03/06 10:55:44;;;;;;;10.45;8.27;;;19.20;70.10;;;;;;5030243;28;20109;-67
2024/03/06 10:58:10;;;;;;;13.15;8.30;;;19.30;70.10;;;;;;5030536;28;20053;-67
2024/03/06 11:00:40;;;;;;;10.13;8.02;;;19.30;70.20;;;;;;5030464;28;20080;-66
2024/03/06 11:03:08;;;;;;;16.33;8.63;;;19.30;70.20;;;;;;5031145;28;20024;-67
2024/03/06 11:05:40;;;;;;;9.10;7.72;;;19.20;70.20;;;;;;5033254;28;20045;-67
2024/03/06 11:08:10;;;;;;;10.18;8.05;;;19.20;70.20;;;;;;5035706;28;20087;-66
2024/03/06 11:10:38;;;;;;;8.40;7.45;;;19.30;70.20;;;;;;5036026;28;20108;-66
2024/03/06 11:13:08;;;;;;;11.55;8.18;;;19.20;70.20;;;;;;5036038;28;20480;-66
2024/03/06 11:15:34;;;;;;;8.63;7.67;;;19.20;70.20;;;;;;5036019;28;20029;-66
2024/03/06 11:18:28;;;;;;;10.52;7.97;;;19.20;70.20;;;;;;5034938;28;21009;-66
2024/03/06 11:21:02;;;;;;;8.68;7.78;;;19.20;70.30;;;;;;5028991;28;20067;-66
2024/03/06 11:23:28;;;;;;;8.98;7.75;;;19.20;70.20;;;;;;5030117;28;20511;-65
2024/03/06 11:25:54;;;;;;;8.57;7.35;;;19.30;70.30;;;;;;5029848;28;20025;-66
2024/03/06 11:28:34;;;;;;;9.73;7.68;;;19.20;70.20;;;;;;5029875;28;20516;-66
2024/03/06 11:31:18;;;;;;;8.05;6.78;;;19.20;70.20;;;;;;5028542;28;20033;-66
2024/03/06 11:33:45;;;;;;;7.82;7.00;;;19.20;70.20;;;;;;5030012;28;20212;-67
2024/03/06 11:36:28;;;;;;;9.52;7.80;;;19.20;70.30;;;;;;5030436;28;20500;-66
2024/03/06 11:39:03;;;;;;;10.15;7.45;;;19.20;70.20;;;;;;5030506;28;20428;-66
2024/03/06 11:41:33;;;;;;;9.48;7.25;;;19.30;70.30;;;;;;5029598;28;20037;-66
2024/03/06 11:44:02;;;;;;;8.05;7.25;;;19.20;70.30;;;;;;5030537;28;20091;-66
2024/03/06 11:46:53;;;;;;;9.63;7.38;;;19.20;70.30;;;;;;5030716;28;20026;-66
2024/03/06 11:49:25;;;;;;;9.35;7.63;;;19.20;70.40;;;;;;5030605;28;20028;-66
2024/03/06 11:51:53;;;;;;;9.00;7.88;;;19.20;70.30;;;;;;5033083;28;20477;-66
2024/03/06 11:54:23;;;;;;;7.35;6.50;;;19.20;70.30;;;;;;5034149;28;20068;-66
2024/03/06 11:56:51;;;;;;;8.70;6.60;;;19.20;70.30;;;;;;5034038;28;20029;-66
2024/03/06 11:59:17;;;;;;;9.45;6.85;;;19.20;70.30;;;;;;5033745;28;20017;-66
2024/03/06 12:01:43;;;;;;;9.60;7.40;;;19.20;70.20;;;;;;5032960;28;20373;-66
2024/03/06 12:04:08;;;;;;;10.48;7.53;;;19.20;70.30;;;;;;5033856;28;20101;-66
2024/03/06 12:06:34;;;;;;;8.35;7.05;;;19.20;70.30;;;;;;5033647;28;20025;-65
2024/03/06 12:09:00;;;;;;;8.40;7.38;;;19.20;70.30;;;;;;5033817;28;20057;-66
2024/03/06 12:11:28;;;;;;;7.93;7.00;;;19.20;70.30;;;;;;5032789;28;20109;-66
2024/03/06 12:13:53;;;;;;;8.63;7.20;;;19.20;70.30;;;;;;5033548;28;20056;-66
2024/03/06 12:16:19;;;;;;;8.55;7.65;;;19.20;70.30;;;;;;5033562;28;20497;-66
2024/03/06 12:18:46;;;;;;;8.13;6.80;;;19.10;70.40;;;;;;5033680;28;20032;-66
2024/03/06 12:21:13;;;;;;;7.50;6.70;;;19.10;70.30;;;;;;5032868;28;20053;-66
2024/03/06 12:23:39;;;;;;;8.98;7.25;;;19.10;70.30;;;;;;5033701;28;20083;-66
2024/03/06 12:26:10;;;;;;;7.72;6.40;;;19.10;70.40;;;;;;5033684;28;20499;-66